sensor_id;sensor_type;location;lat;lon;timestamp;pressure;altitude;pressure_sealevel;temperature;humidity
33265;BME280;31404;53.974;-1.086;2024-02-14T00:00:40;100617.91;;;11.17;100.00
33265;BME280;31404;53.974;-1.086;2024-02-14T00:05:36;100622.20;;;9.84;100.00
33265;BME280;31404;53.974;-1.086;2024-02-14T00:10:35;100622.87;;;11.25;100.00
33265;BME280;31404;53.974;-1.086;2024-02-14T00:20:35;100624.47;;;10.21;100.00
33265;BME280;31404;53.974;-1.086;2024-02-14T00:25:35;100620.31;;;11.90;97.88
33265;BME280;31404;53.974;-1.086;2024-02-14T00:30:35;100617.90;;;10.35;100.00
33265;BME280;31404;53.974;-1.086;2024-02-14T00:35:35;100625.53;;;8.90;100.00
33265;BME280;31404;53.974;-1.086;2024-02-14T00:40:36;100628.14;;;9.41;100.00
33265;BME280;31404;53.974;-1.086;2024-02-14T00:45:36;100634.41;;;9.99;100.00
33265;BME280;31404;53.974;-1.086;2024-02-14T00:50:36;100631.38;;;10.95;100.00
33265;BME280;31404;53.974;-1.086;2024-02-14T00:55:35;100628.53;;;10.46;100.00
33265;BME280;31404;53.974;-1.086;2024-02-14T01:00:35;100627.68;;;10.66;100.00
33265;BME280;31404;53.974;-1.086;2024-02-14T01:05:36;100630.22;;;10.15;100.00
33265;BME280;31404;53.974;-1.086;2024-02-14T01:10:35;100628.42;;;10.85;100.00
33265;BME280;31404;53.974;-1.086;2024-02-14T01:15:35;100628.70;;;11.20;100.00
33265;BME280;31404;53.974;-1.086;2024-02-14T01:20:35;100632.05;;;10.93;100.00
33265;BME280;31404;53.974;-1.086;2024-02-14T01:25:36;100629.32;;;10.88;100.00
33265;BME280;31404;53.974;-1.086;2024-02-14T01:30:37;100625.51;;;10.75;100.00
33265;BME280;31404;53.974;-1.086;2024-02-14T01:35:36;100636.37;;;10.10;100.00
33265;BME280;31404;53.974;-1.086;2024-02-14T01:40:35;100631.05;;;10.74;100.00
33265;BME280;31404;53.974;-1.086;2024-02-14T01:45:35;100630.45;;;10.37;100.00
33265;BME280;31404;53.974;-1.086;2024-02-14T01:50:36;100633.77;;;10.05;100.00
33265;BME280;31404;53.974;-1.086;2024-02-14T01:55:36;100644.91;;;9.40;100.00
33265;BME280;31404;53.974;-1.086;2024-02-14T02:00:36;100639.74;;;10.53;100.00
33265;BME280;31404;53.974;-1.086;2024-02-14T02:05:34;100647.73;;;9.85;100.00
33265;BME280;31404;53.974;-1.086;2024-02-14T02:10:35;100643.59;;;10.71;100.00
33265;BME280;31404;53.974;-1.086;2024-02-14T02:15:35;100645.61;;;10.66;100.00
33265;BME280;31404;53.974;-1.086;2024-02-14T02:20:36;100641.83;;;10.49;100.00
33265;BME280;31404;53.974;-1.086;2024-02-14T02:25:35;100637.94;;;11.11;100.00
33265;BME280;31404;53.974;-1.086;2024-02-14T02:30:35;100638.22;;;10.12;100.00
33265;BME280;31404;53.974;-1.086;2024-02-14T02:35:35;100639.95;;;10.53;100.00
33265;BME280;31404;53.974;-1.086;2024-02-14T02:40:35;100634.48;;;10.79;100.00
33265;BME280;31404;53.974;-1.086;2024-02-14T02:45:35;100631.94;;;9.23;100.00
33265;BME280;31404;53.974;-1.086;2024-02-14T02:50:35;100626.35;;;11.01;100.00
33265;BME280;31404;53.974;-1.086;2024-02-14T02:55:34;100629.63;;;7.55;100.00
33265;BME280;31404;53.974;-1.086;2024-02-14T03:00:35;100619.64;;;8.58;100.00
33265;BME280;31404;53.974;-1.086;2024-02-14T03:05:35;100623.75;;;10.21;100.00
33265;BME280;31404;53.974;-1.086;2024-02-14T03:10:35;100626.51;;;9.16;100.00
33265;BME280;31404;53.974;-1.086;2024-02-14T03:15:35;100621.83;;;10.60;100.00
33265;BME280;31404;53.974;-1.086;2024-02-14T03:20:36;100625.61;;;10.16;100.00
33265;BME280;31404;53.974;-1.086;2024-02-14T03:25:35;100623.07;;;9.28;100.00
33265;BME280;31404;53.974;-1.086;2024-02-14T03:30:35;100617.89;;;10.08;100.00
33265;BME280;31404;53.974;-1.086;2024-02-14T03:35:35;100610.68;;;8.93;100.00
33265;BME280;31404;53.974;-1.086;2024-02-14T03:40:35;100602.65;;;8.55;100.00
33265;BME280;31404;53.974;-1.086;2024-02-14T03:45:35;100607.66;;;8.35;100.00
33265;BME280;31404;53.974;-1.086;2024-02-14T03:50:38;100598.45;;;8.32;100.00
33265;BME280;31404;53.974;-1.086;2024-02-14T03:55:36;100598.97;;;6.93;100.00
33265;BME280;31404;53.974;-1.086;2024-02-14T04:05:30;100601.65;;;8.73;100.00
33265;BME280;31404;53.974;-1.086;2024-02-14T04:10:34;100603.76;;;9.22;100.00
33265;BME280;31404;53.974;-1.086;2024-02-14T04:15:34;100595.22;;;8.48;100.00
33265;BME280;31404;53.974;-1.086;2024-02-14T04:20:35;100593.35;;;9.37;100.00
33265;BME280;31404;53.974;-1.086;2024-02-14T04:25:35;100592.96;;;10.40;100.00
33265;BME280;31404;53.974;-1.086;2024-02-14T04:30:35;100590.92;;;10.66;100.00
33265;BME280;31404;53.974;-1.086;2024-02-14T04:35:35;100596.06;;;9.54;100.00
33265;BME280;31404;53.974;-1.086;2024-02-14T04:45:36;100592.96;;;8.59;100.00
33265;BME280;31404;53.974;-1.086;2024-02-14T04:50:35;100595.53;;;7.41;100.00
33265;BME280;31404;53.974;-1.086;2024-02-14T04:55:35;100587.95;;;8.76;100.00
33265;BME280;31404;53.974;-1.086;2024-02-14T05:00:34;100592.64;;;8.77;100.00
33265;BME280;31404;53.974;-1.086;2024-02-14T05:05:35;100594.47;;;8.88;100.00
33265;BME280;31404;53.974;-1.086;2024-02-14T05:10:35;100595.24;;;8.27;100.00
33265;BME280;31404;53.974;-1.086;2024-02-14T05:15:36;100600.58;;;9.71;100.00
33265;BME280;31404;53.974;-1.086;2024-02-14T05:20:35;100598.76;;;8.40;100.00
33265;BME280;31404;53.974;-1.086;2024-02-14T05:25:36;100589.41;;;8.55;100.00
33265;BME280;31404;53.974;-1.086;2024-02-14T05:30:36;100589.99;;;8.74;100.00
33265;BME280;31404;53.974;-1.086;2024-02-14T05:35:36;100582.52;;;7.17;100.00
33265;BME280;31404;53.974;-1.086;2024-02-14T05:40:35;100586.81;;;7.18;100.00
33265;BME280;31404;53.974;-1.086;2024-02-14T05:45:35;100586.13;;;7.60;100.00
33265;BME280;31404;53.974;-1.086;2024-02-14T05:50:35;100588.07;;;7.68;100.00
33265;BME280;31404;53.974;-1.086;2024-02-14T05:55:37;100585.85;;;7.55;100.00
33265;BME280;31404;53.974;-1.086;2024-02-14T06:00:36;100581.91;;;8.84;100.00
33265;BME280;31404;53.974;-1.086;2024-02-14T06:05:42;100588.49;;;10.78;100.00
33265;BME280;31404;53.974;-1.086;2024-02-14T06:10:36;100596.08;;;11.56;100.00
33265;BME280;31404;53.974;-1.086;2024-02-14T06:15:36;100595.00;;;9.98;100.00
33265;BME280;31404;53.974;-1.086;2024-02-14T06:20:36;100597.69;;;10.39;100.00
33265;BME280;31404;53.974;-1.086;2024-02-14T06:25:38;100591.70;;;9.82;100.00
33265;BME280;31404;53.974;-1.086;2024-02-14T06:30:35;100588.39;;;11.34;100.00
33265;BME280;31404;53.974;-1.086;2024-02-14T06:35:36;100578.84;;;10.76;100.00
33265;BME280;31404;53.974;-1.086;2024-02-14T06:40:36;100585.68;;;8.93;100.00
33265;BME280;31404;53.974;-1.086;2024-02-14T06:45:35;100583.91;;;8.05;100.00
33265;BME280;31404;53.974;-1.086;2024-02-14T06:50:34;100593.03;;;9.24;100.00
33265;BME280;31404;53.974;-1.086;2024-02-14T06:55:35;100589.41;;;9.99;100.00
33265;BME280;31404;53.974;-1.086;2024-02-14T07:00:34;100591.50;;;9.33;100.00
33265;BME280;31404;53.974;-1.086;2024-02-14T07:05:35;100602.07;;;9.01;100.00
33265;BME280;31404;53.974;-1.086;2024-02-14T07:10:36;100601.37;;;9.36;100.00
33265;BME280;31404;53.974;-1.086;2024-02-14T07:20:35;100599.05;;;9.62;100.00
33265;BME280;31404;53.974;-1.086;2024-02-14T07:25:35;100597.19;;;8.53;100.00
33265;BME280;31404;53.974;-1.086;2024-02-14T07:30:35;100602.10;;;8.72;100.00
33265;BME280;31404;53.974;-1.086;2024-02-14T07:35:36;100609.60;;;9.69;100.00
33265;BME280;31404;53.974;-1.086;2024-02-14T07:40:36;100602.66;;;9.19;100.00
33265;BME280;31404;53.974;-1.086;2024-02-14T07:45:35;100605.83;;;9.73;100.00
33265;BME280;31404;53.974;-1.086;2024-02-14T07:50:35;100601.18;;;10.32;100.00
33265;BME280;31404;53.974;-1.086;2024-02-14T07:55:35;100602.24;;;10.24;100.00
33265;BME280;31404;53.974;-1.086;2024-02-14T08:00:36;100605.25;;;10.03;100.00
33265;BME280;31404;53.974;-1.086;2024-02-14T08:05:35;100611.95;;;9.84;100.00
33265;BME280;31404;53.974;-1.086;2024-02-14T08:10:35;100602.87;;;9.42;100.00
33265;BME280;31404;53.974;-1.086;2024-02-14T08:15:35;100606.17;;;9.82;100.00
33265;BME280;31404;53.974;-1.086;2024-02-14T08:20:35;100606.64;;;9.79;100.00
33265;BME280;31404;53.974;-1.086;2024-02-14T08:25:35;100595.80;;;10.54;100.00
33265;BME280;31404;53.974;-1.086;2024-02-14T08:30:34;100594.83;;;10.13;100.00
33265;BME280;31404;53.974;-1.086;2024-02-14T08:35:35;100610.52;;;9.22;100.00
33265;BME280;31404;53.974;-1.086;2024-02-14T08:40:33;100614.65;;;9.78;100.00
33265;BME280;31404;53.974;-1.086;2024-02-14T08:45:35;100610.29;;;9.74;100.00
33265;BME280;31404;53.974;-1.086;2024-02-14T08:50:35;100604.21;;;10.45;100.00
33265;BME280;31404;53.974;-1.086;2024-02-14T08:55:35;100614.08;;;10.12;100.00
33265;BME280;31404;53.974;-1.086;2024-02-14T09:00:35;100612.58;;;11.11;100.00
33265;BME280;31404;53.974;-1.086;2024-02-14T09:05:35;100615.63;;;11.17;100.00
33265;BME280;31404;53.974;-1.086;2024-02-14T09:10:35;100610.76;;;10.94;100.00
33265;BME280;31404;53.974;-1.086;2024-02-14T09:15:35;100624.25;;;10.43;100.00
33265;BME280;31404;53.974;-1.086;2024-02-14T09:20:35;100621.15;;;11.14;100.00
33265;BME280;31404;53.974;-1.086;2024-02-14T09:25:35;100623.58;;;10.12;100.00
33265;BME280;31404;53.974;-1.086;2024-02-14T09:30:35;100622.55;;;10.71;100.00
33265;BME280;31404;53.974;-1.086;2024-02-14T09:35:38;100626.34;;;10.90;100.00
33265;BME280;31404;53.974;-1.086;2024-02-14T09:40:35;100623.04;;;11.21;100.00
33265;BME280;31404;53.974;-1.086;2024-02-14T09:45:41;100632.59;;;11.10;100.00
33265;BME280;31404;53.974;-1.086;2024-02-14T09:50:38;100638.08;;;11.67;100.00
33265;BME280;31404;53.974;-1.086;2024-02-14T09:55:35;100635.39;;;11.22;100.00
33265;BME280;31404;53.974;-1.086;2024-02-14T10:00:35;100640.90;;;11.78;100.00
33265;BME280;31404;53.974;-1.086;2024-02-14T10:05:35;100643.86;;;10.55;100.00
33265;BME280;31404;53.974;-1.086;2024-02-14T10:10:35;100644.93;;;11.75;100.00
33265;BME280;31404;53.974;-1.086;2024-02-14T10:15:35;100644.98;;;11.53;100.00
33265;BME280;31404;53.974;-1.086;2024-02-14T10:25:35;100644.33;;;12.48;100.00
33265;BME280;31404;53.974;-1.086;2024-02-14T10:30:35;100645.83;;;12.74;100.00
33265;BME280;31404;53.974;-1.086;2024-02-14T10:35:36;100642.45;;;12.57;100.00
33265;BME280;31404;53.974;-1.086;2024-02-14T10:40:40;100641.47;;;11.63;100.00
33265;BME280;31404;53.974;-1.086;2024-02-14T10:45:35;100650.04;;;12.45;100.00
33265;BME280;31404;53.974;-1.086;2024-02-14T10:50:36;100646.50;;;12.82;100.00
33265;BME280;31404;53.974;-1.086;2024-02-14T10:55:36;100644.92;;;12.42;100.00
33265;BME280;31404;53.974;-1.086;2024-02-14T11:00:35;100644.02;;;11.63;100.00
33265;BME280;31404;53.974;-1.086;2024-02-14T11:15:35;100653.85;;;12.92;100.00
33265;BME280;31404;53.974;-1.086;2024-02-14T11:20:36;100656.29;;;11.83;100.00
33265;BME280;31404;53.974;-1.086;2024-02-14T11:25:35;100656.75;;;11.71;100.00
33265;BME280;31404;53.974;-1.086;2024-02-14T11:30:35;100655.00;;;11.64;100.00
33265;BME280;31404;53.974;-1.086;2024-02-14T11:35:35;100652.77;;;11.97;100.00
33265;BME280;31404;53.974;-1.086;2024-02-14T11:40:34;100653.15;;;11.81;100.00
33265;BME280;31404;53.974;-1.086;2024-02-14T11:45:29;100640.71;;;12.97;100.00
33265;BME280;31404;53.974;-1.086;2024-02-14T11:50:35;100638.52;;;12.46;100.00
33265;BME280;31404;53.974;-1.086;2024-02-14T11:55:36;100634.10;;;12.74;100.00
33265;BME280;31404;53.974;-1.086;2024-02-14T12:00:37;100625.98;;;12.89;100.00
33265;BME280;31404;53.974;-1.086;2024-02-14T12:05:36;100637.38;;;12.19;100.00
33265;BME280;31404;53.974;-1.086;2024-02-14T12:10:36;100635.40;;;12.14;100.00
33265;BME280;31404;53.974;-1.086;2024-02-14T12:20:36;100642.79;;;11.39;100.00
33265;BME280;31404;53.974;-1.086;2024-02-14T12:25:35;100645.11;;;11.56;100.00
33265;BME280;31404;53.974;-1.086;2024-02-14T12:35:36;100652.40;;;11.97;100.00
33265;BME280;31404;53.974;-1.086;2024-02-14T12:40:36;100652.09;;;12.03;100.00
33265;BME280;31404;53.974;-1.086;2024-02-14T12:45:36;100639.88;;;12.25;100.00
33265;BME280;31404;53.974;-1.086;2024-02-14T12:50:36;100646.68;;;12.38;100.00
33265;BME280;31404;53.974;-1.086;2024-02-14T12:55:36;100653.54;;;12.17;100.00
33265;BME280;31404;53.974;-1.086;2024-02-14T13:00:35;100657.95;;;11.98;100.00
33265;BME280;31404;53.974;-1.086;2024-02-14T13:05:35;100654.14;;;11.05;100.00
33265;BME280;31404;53.974;-1.086;2024-02-14T13:10:35;100650.79;;;12.09;100.00
33265;BME280;31404;53.974;-1.086;2024-02-14T13:15:36;100650.48;;;11.62;100.00
33265;BME280;31404;53.974;-1.086;2024-02-14T13:20:35;100647.26;;;12.36;100.00
33265;BME280;31404;53.974;-1.086;2024-02-14T13:25:35;100645.78;;;11.83;100.00
33265;BME280;31404;53.974;-1.086;2024-02-14T13:30:35;100643.59;;;13.11;100.00
33265;BME280;31404;53.974;-1.086;2024-02-14T13:35:35;100647.13;;;12.92;100.00
33265;BME280;31404;53.974;-1.086;2024-02-14T13:40:35;100649.79;;;12.96;100.00
33265;BME280;31404;53.974;-1.086;2024-02-14T13:50:35;100653.43;;;12.37;100.00
33265;BME280;31404;53.974;-1.086;2024-02-14T13:55:37;100645.23;;;13.37;100.00
33265;BME280;31404;53.974;-1.086;2024-02-14T14:05:36;100647.66;;;12.53;100.00
33265;BME280;31404;53.974;-1.086;2024-02-14T14:10:36;100645.42;;;13.22;100.00
33265;BME280;31404;53.974;-1.086;2024-02-14T14:15:36;100636.82;;;13.43;100.00
33265;BME280;31404;53.974;-1.086;2024-02-14T14:20:36;100638.30;;;13.77;100.00
33265;BME280;31404;53.974;-1.086;2024-02-14T14:25:36;100642.09;;;13.67;100.00
33265;BME280;31404;53.974;-1.086;2024-02-14T14:30:35;100636.36;;;13.95;100.00
33265;BME280;31404;53.974;-1.086;2024-02-14T14:35:35;100644.96;;;13.89;100.00
33265;BME280;31404;53.974;-1.086;2024-02-14T14:40:35;100646.53;;;13.87;100.00
33265;BME280;31404;53.974;-1.086;2024-02-14T14:45:35;100648.83;;;13.79;100.00
33265;BME280;31404;53.974;-1.086;2024-02-14T14:50:36;100644.13;;;13.55;100.00
33265;BME280;31404;53.974;-1.086;2024-02-14T15:00:36;100651.70;;;13.30;100.00
33265;BME280;31404;53.974;-1.086;2024-02-14T15:10:34;100661.79;;;13.01;100.00
33265;BME280;31404;53.974;-1.086;2024-02-14T15:15:36;100669.76;;;13.18;100.00
33265;BME280;31404;53.974;-1.086;2024-02-14T15:20:36;100667.49;;;13.18;100.00
33265;BME280;31404;53.974;-1.086;2024-02-14T15:25:36;100671.00;;;13.33;100.00
33265;BME280;31404;53.974;-1.086;2024-02-14T15:30:35;100672.52;;;13.59;100.00
33265;BME280;31404;53.974;-1.086;2024-02-14T15:35:35;100678.02;;;13.78;100.00
33265;BME280;31404;53.974;-1.086;2024-02-14T15:40:35;100675.94;;;14.93;100.00
33265;BME280;31404;53.974;-1.086;2024-02-14T15:45:35;100682.01;;;13.78;100.00
33265;BME280;31404;53.974;-1.086;2024-02-14T15:50:36;100681.06;;;14.15;100.00
33265;BME280;31404;53.974;-1.086;2024-02-14T15:55:36;100685.54;;;14.32;100.00
33265;BME280;31404;53.974;-1.086;2024-02-14T16:00:36;100700.68;;;12.88;100.00
33265;BME280;31404;53.974;-1.086;2024-02-14T16:05:36;100710.20;;;12.32;100.00
33265;BME280;31404;53.974;-1.086;2024-02-14T16:10:36;100710.64;;;12.31;100.00
33265;BME280;31404;53.974;-1.086;2024-02-14T16:15:35;100708.90;;;12.44;100.00
33265;BME280;31404;53.974;-1.086;2024-02-14T16:20:35;100709.76;;;11.85;100.00
33265;BME280;31404;53.974;-1.086;2024-02-14T16:25:36;100717.34;;;13.88;100.00
33265;BME280;31404;53.974;-1.086;2024-02-14T16:30:35;100719.71;;;14.67;100.00
33265;BME280;31404;53.974;-1.086;2024-02-14T16:35:35;100730.34;;;14.06;100.00
33265;BME280;31404;53.974;-1.086;2024-02-14T16:40:35;100727.14;;;13.97;100.00
33265;BME280;31404;53.974;-1.086;2024-02-14T16:45:35;100724.79;;;13.73;100.00
33265;BME280;31404;53.974;-1.086;2024-02-14T16:50:35;100719.92;;;13.96;100.00
33265;BME280;31404;53.974;-1.086;2024-02-14T16:55:35;100725.90;;;12.92;100.00
33265;BME280;31404;53.974;-1.086;2024-02-14T17:00:35;100732.09;;;12.48;100.00
33265;BME280;31404;53.974;-1.086;2024-02-14T17:05:36;100728.13;;;12.86;100.00
33265;BME280;31404;53.974;-1.086;2024-02-14T17:10:36;100743.75;;;12.29;100.00
33265;BME280;31404;53.974;-1.086;2024-02-14T17:15:35;100749.25;;;13.82;100.00
33265;BME280;31404;53.974;-1.086;2024-02-14T17:20:36;100756.20;;;14.57;100.00
33265;BME280;31404;53.974;-1.086;2024-02-14T17:25:36;100759.53;;;15.79;94.08
33265;BME280;31404;53.974;-1.086;2024-02-14T17:30:35;100763.56;;;15.72;92.58
33265;BME280;31404;53.974;-1.086;2024-02-14T17:35:35;100765.74;;;15.86;91.31
33265;BME280;31404;53.974;-1.086;2024-02-14T17:40:36;100772.34;;;16.40;89.13
33265;BME280;31404;53.974;-1.086;2024-02-14T17:45:35;100776.76;;;15.98;89.97
33265;BME280;31404;53.974;-1.086;2024-02-14T17:50:35;100782.66;;;15.51;90.01
33265;BME280;31404;53.974;-1.086;2024-02-14T17:55:36;100792.61;;;15.57;91.02
33265;BME280;31404;53.974;-1.086;2024-02-14T18:00:35;100804.47;;;14.94;100.00
33265;BME280;31404;53.974;-1.086;2024-02-14T18:05:34;100798.34;;;15.89;90.51
33265;BME280;31404;53.974;-1.086;2024-02-14T18:10:35;100803.04;;;15.86;89.39
33265;BME280;31404;53.974;-1.086;2024-02-14T18:15:35;100809.64;;;15.50;90.54
33265;BME280;31404;53.974;-1.086;2024-02-14T18:20:35;100805.06;;;15.27;92.57
33265;BME280;31404;53.974;-1.086;2024-02-14T18:25:35;100803.89;;;15.37;90.17
33265;BME280;31404;53.974;-1.086;2024-02-14T18:30:35;100802.35;;;15.20;91.08
33265;BME280;31404;53.974;-1.086;2024-02-14T18:35:35;100806.60;;;14.56;92.78
33265;BME280;31404;53.974;-1.086;2024-02-14T18:40:35;100805.92;;;15.00;92.33
33265;BME280;31404;53.974;-1.086;2024-02-14T18:45:35;100806.27;;;14.95;91.97
33265;BME280;31404;53.974;-1.086;2024-02-14T18:50:35;100808.58;;;14.41;95.26
33265;BME280;31404;53.974;-1.086;2024-02-14T18:55:35;100809.29;;;14.12;95.76
33265;BME280;31404;53.974;-1.086;2024-02-14T19:00:35;100806.07;;;14.83;93.58
33265;BME280;31404;53.974;-1.086;2024-02-14T19:05:36;100804.65;;;14.44;95.65
33265;BME280;31404;53.974;-1.086;2024-02-14T19:10:36;100805.63;;;14.37;95.40
33265;BME280;31404;53.974;-1.086;2024-02-14T19:15:36;100802.05;;;14.88;92.48
33265;BME280;31404;53.974;-1.086;2024-02-14T19:20:42;100807.25;;;14.53;94.74
33265;BME280;31404;53.974;-1.086;2024-02-14T19:25:37;100804.37;;;15.80;88.54
33265;BME280;31404;53.974;-1.086;2024-02-14T19:30:35;100807.37;;;15.40;90.18
33265;BME280;31404;53.974;-1.086;2024-02-14T19:35:35;100806.90;;;14.65;94.91
33265;BME280;31404;53.974;-1.086;2024-02-14T19:40:35;100803.84;;;14.19;96.23
33265;BME280;31404;53.974;-1.086;2024-02-14T19:45:35;100803.60;;;13.86;98.21
33265;BME280;31404;53.974;-1.086;2024-02-14T19:50:35;100812.57;;;14.62;95.01
33265;BME280;31404;53.974;-1.086;2024-02-14T19:55:35;100812.09;;;14.30;95.81
33265;BME280;31404;53.974;-1.086;2024-02-14T20:00:35;100816.11;;;14.67;95.00
33265;BME280;31404;53.974;-1.086;2024-02-14T20:05:35;100811.80;;;14.78;93.93
33265;BME280;31404;53.974;-1.086;2024-02-14T20:10:35;100810.68;;;14.05;97.26
33265;BME280;31404;53.974;-1.086;2024-02-14T20:15:36;100813.32;;;14.62;93.85
33265;BME280;31404;53.974;-1.086;2024-02-14T20:20:36;100810.77;;;14.70;93.27
33265;BME280;31404;53.974;-1.086;2024-02-14T20:25:36;100805.44;;;15.80;88.58
33265;BME280;31404;53.974;-1.086;2024-02-14T20:30:35;100808.65;;;15.11;92.43
33265;BME280;31404;53.974;-1.086;2024-02-14T20:35:35;100804.03;;;15.73;88.75
33265;BME280;31404;53.974;-1.086;2024-02-14T20:40:36;100807.48;;;15.37;90.25
33265;BME280;31404;53.974;-1.086;2024-02-14T20:45:35;100805.42;;;15.31;90.53
33265;BME280;31404;53.974;-1.086;2024-02-14T20:50:41;100801.78;;;15.85;88.03
33265;BME280;31404;53.974;-1.086;2024-02-14T20:55:36;100811.89;;;14.79;90.86
33265;BME280;31404;53.974;-1.086;2024-02-14T21:00:35;100813.60;;;14.49;94.63
33265;BME280;31404;53.974;-1.086;2024-02-14T21:05:35;100818.27;;;12.63;100.00
33265;BME280;31404;53.974;-1.086;2024-02-14T21:10:36;100808.92;;;14.08;97.54
33265;BME280;31404;53.974;-1.086;2024-02-14T21:15:35;100812.43;;;12.46;100.00
33265;BME280;31404;53.974;-1.086;2024-02-14T21:20:35;100816.38;;;12.09;100.00
33265;BME280;31404;53.974;-1.086;2024-02-14T21:25:35;100809.68;;;13.68;99.74
33265;BME280;31404;53.974;-1.086;2024-02-14T21:30:35;100813.47;;;13.25;100.00
33265;BME280;31404;53.974;-1.086;2024-02-14T21:35:35;100804.60;;;11.79;100.00
33265;BME280;31404;53.974;-1.086;2024-02-14T21:40:35;100801.57;;;11.18;100.00
33265;BME280;31404;53.974;-1.086;2024-02-14T21:45:35;100802.67;;;11.84;100.00
33265;BME280;31404;53.974;-1.086;2024-02-14T21:50:35;100805.42;;;12.00;100.00
33265;BME280;31404;53.974;-1.086;2024-02-14T21:55:35;100805.38;;;12.86;100.00
33265;BME280;31404;53.974;-1.086;2024-02-14T22:00:36;100808.21;;;12.52;100.00
33265;BME280;31404;53.974;-1.086;2024-02-14T22:05:35;100806.10;;;11.90;100.00
33265;BME280;31404;53.974;-1.086;2024-02-14T22:10:35;100797.67;;;13.46;100.00
33265;BME280;31404;53.974;-1.086;2024-02-14T22:15:36;100791.57;;;14.15;100.00
33265;BME280;31404;53.974;-1.086;2024-02-14T22:20:34;100793.57;;;13.41;100.00
33265;BME280;31404;53.974;-1.086;2024-02-14T22:25:34;100792.42;;;14.23;100.00
33265;BME280;31404;53.974;-1.086;2024-02-14T22:30:35;100800.19;;;13.80;100.00
33265;BME280;31404;53.974;-1.086;2024-02-14T22:35:35;100800.72;;;13.76;100.00
33265;BME280;31404;53.974;-1.086;2024-02-14T22:40:36;100802.43;;;14.33;100.00
33265;BME280;31404;53.974;-1.086;2024-02-14T22:45:35;100799.76;;;13.34;100.00
33265;BME280;31404;53.974;-1.086;2024-02-14T22:50:35;100801.07;;;13.83;100.00
33265;BME280;31404;53.974;-1.086;2024-02-14T22:55:36;100800.61;;;14.34;100.00
33265;BME280;31404;53.974;-1.086;2024-02-14T23:00:37;100792.01;;;13.68;100.00
33265;BME280;31404;53.974;-1.086;2024-02-14T23:05:35;100773.23;;;13.82;100.00
33265;BME280;31404;53.974;-1.086;2024-02-14T23:10:35;100778.18;;;12.51;100.00
33265;BME280;31404;53.974;-1.086;2024-02-14T23:15:34;100782.75;;;12.48;100.00
33265;BME280;31404;53.974;-1.086;2024-02-14T23:20:35;100774.95;;;12.21;100.00
33265;BME280;31404;53.974;-1.086;2024-02-14T23:25:35;100781.18;;;13.05;100.00
33265;BME280;31404;53.974;-1.086;2024-02-14T23:30:35;100772.06;;;13.06;100.00
33265;BME280;31404;53.974;-1.086;2024-02-14T23:35:34;100778.08;;;11.04;100.00
33265;BME280;31404;53.974;-1.086;2024-02-14T23:40:35;100771.39;;;12.21;100.00
33265;BME280;31404;53.974;-1.086;2024-02-14T23:45:36;100774.35;;;11.69;100.00
33265;BME280;31404;53.974;-1.086;2024-02-14T23:50:35;100776.59;;;12.75;100.00
33265;BME280;31404;53.974;-1.086;2024-02-14T23:55:35;100775.68;;;13.23;100.00
